Adco, Washington
Current Conditions -  °F | °C
As of 7:53 AM on Tuesday 21 Oct 2014 (Local Time) from KEPH Reporting Station
Moderate Fog Moderate Fog  
Wind Chill: 46°   Ceiling: 200
Heat Index: 48°   Visibility: 0.25mi
Dew Point: 47°   Wind: 5mph
Humidity: 96%   Direction: 30°NNE
Pressure: 29.86"   Gusts: NA
Location:  47.4314°N, 119.485°W
Report Text: KEPH 211453Z AUTO 03004KT 1/4SM FG VV002 09/08 A2986 RMK AO2 SLP113 T00890083 53010
Loading
Personal Weather Stations






























Interactive Weather Map
Tropical Storm Tracking
New forecast layout! Learn more

10-Day Weather Forecast

Advertisements
Track Severe Weather on mobile